createdAt,value
2019-03-29T00:01:16.843Z,5.85
2019-03-29T00:03:46.507Z,5.83
2019-03-29T00:06:37.292Z,5.92
2019-03-29T00:09:08.867Z,5.92
2019-03-29T00:11:57.828Z,5.95
2019-03-29T00:14:27.332Z,5.93
2019-03-29T00:16:56.820Z,5.92
2019-03-29T00:19:26.302Z,5.85
2019-03-29T00:21:55.817Z,5.83
2019-03-29T00:24:25.369Z,5.78
2019-03-29T00:26:54.824Z,5.79
2019-03-29T00:29:24.335Z,5.74
2019-03-29T00:31:54.343Z,5.73
2019-03-29T00:34:23.830Z,5.75
2019-03-29T00:36:53.331Z,5.65
2019-03-29T00:39:23.039Z,5.62
2019-03-29T00:41:52.851Z,5.60
2019-03-29T00:44:22.529Z,5.56
2019-03-29T00:46:51.994Z,5.63
2019-03-29T00:49:21.458Z,5.56
2019-03-29T00:51:51.257Z,5.64
2019-03-29T00:54:23.726Z,5.72
2019-03-29T00:56:53.251Z,5.51
2019-03-29T00:59:22.764Z,5.53
2019-03-29T01:01:52.329Z,5.53
2019-03-29T01:04:22.594Z,5.53
2019-03-29T01:06:52.263Z,5.49
2019-03-29T01:09:21.796Z,5.47
2019-03-29T01:11:51.458Z,5.41
2019-03-29T01:14:20.949Z,5.42
2019-03-29T01:16:50.855Z,5.44
2019-03-29T01:19:20.180Z,5.35
2019-03-29T01:21:50.012Z,5.34
2019-03-29T01:24:19.571Z,5.24
2019-03-29T01:26:49.113Z,5.16
2019-03-29T01:29:20.182Z,5.18
2019-03-29T01:31:49.644Z,5.21
2019-03-29T01:34:19.135Z,5.18
2019-03-29T01:36:48.707Z,5.17
2019-03-29T01:39:18.342Z,4.98
2019-03-29T01:41:47.872Z,4.87
2019-03-29T01:44:17.400Z,4.78
2019-03-29T01:47:06.197Z,4.93
2019-03-29T01:49:35.993Z,4.93
2019-03-29T01:52:05.841Z,5.00
2019-03-29T01:54:35.325Z,5.00
2019-03-29T01:57:04.833Z,5.00
2019-03-29T01:59:34.321Z,5.01
2019-03-29T02:02:03.801Z,5.04
2019-03-29T02:04:34.240Z,5.07
2019-03-29T02:07:03.902Z,5.11
2019-03-29T02:09:33.481Z,4.98
2019-03-29T02:12:11.565Z,4.91
2019-03-29T02:14:41.055Z,4.92
2019-03-29T02:17:10.514Z,4.93
2019-03-29T02:19:40.041Z,4.95
2019-03-29T02:22:09.566Z,4.94
2019-03-29T02:24:58.385Z,4.99
2019-03-29T02:27:27.875Z,5.03
2019-03-29T02:29:57.674Z,4.95
2019-03-29T02:32:27.208Z,4.83
2019-03-29T02:34:56.672Z,4.82
2019-03-29T02:37:26.171Z,4.85
2019-03-29T02:39:55.989Z,4.81
2019-03-29T02:42:25.475Z,4.88
2019-03-29T02:44:56.440Z,4.90
2019-03-29T02:47:25.965Z,4.88
2019-03-29T02:49:55.421Z,4.78
2019-03-29T02:52:25.487Z,4.75
2019-03-29T02:54:54.996Z,4.67
2019-03-29T02:57:24.459Z,4.68
2019-03-29T02:59:53.923Z,4.66
2019-03-29T03:02:26.237Z,4.64
2019-03-29T03:05:14.146Z,4.50
2019-03-29T03:07:43.672Z,4.50
2019-03-29T03:10:14.054Z,4.49
2019-03-29T03:12:43.544Z,4.52
2019-03-29T03:15:14.152Z,4.51
2019-03-29T03:18:02.943Z,4.48
2019-03-29T03:20:32.456Z,4.49
2019-03-29T03:23:01.959Z,4.48
2019-03-29T03:25:31.415Z,4.39
2019-03-29T03:28:00.934Z,4.43
2019-03-29T03:30:30.388Z,4.42
2019-03-29T03:33:01.407Z,4.41
2019-03-29T03:35:30.877Z,4.36
2019-03-29T03:38:00.541Z,4.40
2019-03-29T03:40:30.014Z,4.30
2019-03-29T03:42:59.511Z,4.24
2019-03-29T03:45:28.984Z,4.23
2019-03-29T03:47:58.492Z,4.16
2019-03-29T03:50:32.524Z,4.15
2019-03-29T03:53:02.700Z,4.14
2019-03-29T03:55:33.674Z,4.07
2019-03-29T03:58:04.859Z,4.16
2019-03-29T04:00:38.933Z,4.05
2019-03-29T04:03:10.035Z,4.02
2019-03-29T04:05:39.521Z,3.99
2019-03-29T04:08:09.022Z,3.97
2019-03-29T04:10:42.035Z,3.97
2019-03-29T04:13:09.722Z,3.98
2019-03-29T04:15:39.347Z,4.06
2019-03-29T04:18:08.838Z,4.11
2019-03-29T04:20:57.712Z,4.16
2019-03-29T04:23:27.198Z,4.15
2019-03-29T04:25:56.778Z,4.13
2019-03-29T04:28:26.283Z,4.18
2019-03-29T04:30:55.816Z,4.08
2019-03-29T04:33:25.321Z,4.07
2019-03-29T04:35:54.825Z,4.06
2019-03-29T04:38:24.351Z,4.00
2019-03-29T04:40:53.876Z,4.08
2019-03-29T04:43:23.348Z,4.11
2019-03-29T04:46:12.170Z,4.10
2019-03-29T04:48:41.638Z,4.11
2019-03-29T04:51:11.607Z,4.08
2019-03-29T04:53:41.161Z,4.00
2019-03-29T04:56:31.199Z,3.96
2019-03-29T04:59:00.929Z,3.78
2019-03-29T05:01:49.712Z,3.87
2019-03-29T05:04:19.215Z,3.81
2019-03-29T05:06:48.713Z,3.68
2019-03-29T05:09:18.198Z,3.69
2019-03-29T05:11:47.697Z,3.73
2019-03-29T05:14:17.350Z,3.80
2019-03-29T05:16:46.851Z,3.79
2019-03-29T05:19:16.390Z,3.85
2019-03-29T05:21:45.913Z,3.86
2019-03-29T05:24:15.417Z,3.91
2019-03-29T05:26:44.891Z,3.96
2019-03-29T05:29:14.375Z,4.06
2019-03-29T05:31:43.837Z,4.13
2019-03-29T05:34:13.660Z,4.12
2019-03-29T05:36:49.202Z,4.13
2019-03-29T05:39:18.711Z,4.10
2019-03-29T05:41:48.181Z,4.16
2019-03-29T05:44:17.676Z,4.16
2019-03-29T05:46:47.150Z,4.29
2019-03-29T05:49:16.694Z,4.27
2019-03-29T05:51:46.217Z,4.36
2019-03-29T05:54:15.903Z,4.49
2019-03-29T05:56:46.865Z,4.67
2019-03-29T05:59:16.341Z,4.80
2019-03-29T06:01:45.857Z,5.00
2019-03-29T06:04:15.389Z,5.18
2019-03-29T06:06:44.897Z,5.29
2019-03-29T06:09:35.085Z,5.48
2019-03-29T06:12:04.701Z,5.55
2019-03-29T06:14:53.546Z,5.76
2019-03-29T06:17:23.024Z,5.93
2019-03-29T06:19:52.514Z,6.08
2019-03-29T06:22:22.011Z,6.15
2019-03-29T06:24:51.530Z,6.41
2019-03-29T06:27:21.049Z,6.63
2019-03-29T06:29:50.579Z,6.81
2019-03-29T06:32:20.079Z,6.67
2019-03-29T06:34:49.562Z,6.98
2019-03-29T06:37:21.113Z,8.53
2019-03-29T06:39:52.984Z,11.00
2019-03-29T06:42:22.478Z,13.13
2019-03-29T06:44:51.979Z,14.40
2019-03-29T06:47:21.519Z,15.18
2019-03-29T06:49:51.014Z,15.70
2019-03-29T06:52:20.524Z,17.76
2019-03-29T06:54:50.115Z,18.19
2019-03-29T06:57:19.611Z,16.14
2019-03-29T06:59:49.159Z,13.83
2019-03-29T07:02:18.627Z,13.72
2019-03-29T07:04:48.119Z,16.17
2019-03-29T07:07:17.656Z,16.22
2019-03-29T07:09:47.126Z,16.01
2019-03-29T07:12:16.646Z,15.68
2019-03-29T07:14:46.171Z,15.31
2019-03-29T07:17:15.678Z,15.12
2019-03-29T07:19:45.181Z,16.06
2019-03-29T07:22:14.716Z,17.09
2019-03-29T07:24:44.309Z,14.89
2019-03-29T07:27:13.846Z,14.80
2019-03-29T07:29:43.677Z,14.88
2019-03-29T07:32:13.928Z,17.42
2019-03-29T07:34:43.441Z,18.94
2019-03-29T07:37:15.593Z,19.48
2019-03-29T07:39:45.097Z,18.70
2019-03-29T07:42:14.643Z,19.63
2019-03-29T07:44:44.162Z,19.62
2019-03-29T07:47:32.982Z,19.36
2019-03-29T07:50:02.505Z,22.43
2019-03-29T07:52:32.012Z,23.67
2019-03-29T07:55:01.490Z,21.81
2019-03-29T07:57:30.999Z,21.85
2019-03-29T08:00:00.614Z,22.73
2019-03-29T08:02:30.147Z,20.54
2019-03-29T08:04:59.680Z,18.76
2019-03-29T08:07:31.459Z,20.90
2019-03-29T08:10:03.300Z,22.96
2019-03-29T08:12:31.776Z,19.23
2019-03-29T08:15:01.490Z,18.37
2019-03-29T08:17:31.036Z,20.04
2019-03-29T08:20:35.996Z,18.22
2019-03-29T08:22:31.864Z,16.01
2019-03-29T08:25:10.413Z,17.60
2019-03-29T08:27:39.888Z,19.17
2019-03-29T08:30:10.004Z,17.71
2019-03-29T08:32:39.545Z,19.19
2019-03-29T08:35:09.507Z,19.96
2019-03-29T08:37:38.990Z,24.48
2019-03-29T08:40:08.928Z,27.00
2019-03-29T08:42:38.399Z,21.34
2019-03-29T08:45:08.970Z,22.52
2019-03-29T08:47:38.478Z,25.32
2019-03-29T08:50:08.660Z,26.52
2019-03-29T08:52:38.142Z,26.72
2019-03-29T08:55:08.774Z,22.09
2019-03-29T08:57:47.388Z,22.98
2019-03-29T09:00:21.457Z,21.61
2019-03-29T09:02:50.952Z,19.42
2019-03-29T09:05:20.435Z,18.25
2019-03-29T09:07:50.232Z,19.06
2019-03-29T09:10:39.024Z,18.76
2019-03-29T09:13:08.557Z,19.03
2019-03-29T09:15:39.335Z,18.30
2019-03-29T09:18:11.586Z,20.65
2019-03-29T09:20:41.510Z,19.11
2019-03-29T09:23:11.026Z,20.60
2019-03-29T09:25:43.398Z,19.25
2019-03-29T09:28:13.318Z,19.60
2019-03-29T09:31:02.126Z,20.45
2019-03-29T09:33:31.560Z,20.12
2019-03-29T09:36:01.069Z,21.39
2019-03-29T09:38:30.580Z,21.64
2019-03-29T09:41:21.503Z,22.66
2019-03-29T09:43:54.028Z,20.78
2019-03-29T09:46:22.172Z,23.18
2019-03-29T09:48:51.730Z,22.41
2019-03-29T09:51:21.242Z,24.74
2019-03-29T09:54:10.042Z,21.94
2019-03-29T09:56:39.767Z,21.28
2019-03-29T09:59:09.316Z,19.91
2019-03-29T10:01:39.941Z,20.61
2019-03-29T10:04:28.784Z,20.31
2019-03-29T10:07:17.654Z,19.66
2019-03-29T10:09:47.132Z,19.94
2019-03-29T10:12:16.612Z,20.50
2019-03-29T10:14:46.153Z,20.37
2019-03-29T10:17:15.798Z,19.60
2019-03-29T10:19:45.291Z,21.45
2019-03-29T10:22:15.274Z,20.33
2019-03-29T10:24:44.759Z,20.29
2019-03-29T10:27:33.584Z,22.57
2019-03-29T10:30:25.437Z,22.15
2019-03-29T10:32:55.512Z,22.20
2019-03-29T10:35:25.114Z,22.30
2019-03-29T10:37:54.629Z,20.63
2019-03-29T10:40:24.153Z,21.32
2019-03-29T10:42:58.114Z,19.68
2019-03-29T10:45:24.913Z,19.46
2019-03-29T10:47:54.489Z,20.57
2019-03-29T10:50:24.264Z,22.55
2019-03-29T10:53:13.117Z,24.27
2019-03-29T10:55:42.539Z,22.99
2019-03-29T10:58:12.283Z,21.06
2019-03-29T11:00:42.285Z,17.71
2019-03-29T11:03:13.551Z,18.57
2019-03-29T11:05:43.223Z,20.33
2019-03-29T11:08:13.049Z,19.64
2019-03-29T11:10:43.684Z,21.84
2019-03-29T11:13:14.321Z,21.00
2019-03-29T11:15:44.431Z,19.93
2019-03-29T11:18:33.222Z,18.99
2019-03-29T11:21:02.765Z,19.23
2019-03-29T11:23:32.266Z,19.08
2019-03-29T11:26:01.757Z,18.31
2019-03-29T11:28:32.953Z,19.74
2019-03-29T11:31:24.002Z,19.30
2019-03-29T11:33:52.951Z,19.57
2019-03-29T11:36:22.441Z,19.12
2019-03-29T11:38:52.691Z,18.42
2019-03-29T11:41:28.253Z,19.39
2019-03-29T11:43:57.817Z,21.03
2019-03-29T11:46:27.421Z,20.84
2019-03-29T11:48:57.031Z,20.18
2019-03-29T11:51:45.879Z,21.77
2019-03-29T11:54:15.386Z,19.90
2019-03-29T11:56:47.460Z,19.01
2019-03-29T11:59:16.858Z,19.30
2019-03-29T12:01:59.128Z,19.76
2019-03-29T12:04:28.647Z,18.66
2019-03-29T12:06:58.112Z,18.10
2019-03-29T12:09:27.821Z,18.58
2019-03-29T12:11:57.306Z,18.70
2019-03-29T12:14:26.784Z,20.78
2019-03-29T12:16:56.341Z,21.65
2019-03-29T12:19:25.903Z,23.07
2019-03-29T12:21:55.393Z,22.71
2019-03-29T12:24:24.945Z,21.03
2019-03-29T12:26:55.114Z,21.86
2019-03-29T12:29:24.715Z,23.16
2019-03-29T12:32:13.583Z,22.39
2019-03-29T12:34:43.087Z,21.25
2019-03-29T12:37:12.595Z,21.21
2019-03-29T12:39:42.250Z,22.25
2019-03-29T12:42:11.743Z,22.58
2019-03-29T12:44:41.203Z,20.84
2019-03-29T12:47:10.697Z,20.86
2019-03-29T12:49:40.188Z,20.51
2019-03-29T12:52:09.696Z,20.37
2019-03-29T12:54:39.208Z,21.68
2019-03-29T12:57:10.229Z,20.48
2019-03-29T12:59:39.962Z,20.82
2019-03-29T13:02:10.299Z,20.76
2019-03-29T13:04:39.780Z,21.67
2019-03-29T13:07:09.253Z,22.10
2019-03-29T13:09:39.918Z,22.18
2019-03-29T13:12:09.712Z,21.95
2019-03-29T13:14:39.171Z,20.47
2019-03-29T13:17:08.935Z,20.92
2019-03-29T13:19:38.626Z,21.68
2019-03-29T13:22:08.888Z,19.97
2019-03-29T13:24:58.144Z,19.99
2019-03-29T13:27:27.628Z,20.76
2019-03-29T13:29:57.091Z,20.47
2019-03-29T13:32:26.653Z,20.41
2019-03-29T13:34:56.153Z,20.79
2019-03-29T13:37:25.663Z,20.55
2019-03-29T13:39:55.167Z,20.13
2019-03-29T13:42:24.681Z,20.10
2019-03-29T13:44:54.133Z,19.47
2019-03-29T13:47:23.657Z,20.67
2019-03-29T13:49:53.132Z,20.45
2019-03-29T13:52:22.602Z,19.98
2019-03-29T13:54:52.152Z,19.67
2019-03-29T13:57:21.642Z,19.15
2019-03-29T13:59:51.404Z,20.58
2019-03-29T14:02:21.149Z,21.00
2019-03-29T14:04:50.618Z,21.25
2019-03-29T14:07:20.127Z,21.44
2019-03-29T14:09:49.647Z,21.47
2019-03-29T14:12:39.581Z,20.38
2019-03-29T14:15:12.993Z,22.02
2019-03-29T14:18:01.827Z,21.51
2019-03-29T14:20:33.831Z,20.34
2019-03-29T14:23:04.921Z,21.62
2019-03-29T14:25:34.672Z,19.58
2019-03-29T14:28:07.171Z,20.76
2019-03-29T14:30:36.687Z,21.41
2019-03-29T14:33:25.462Z,21.46
2019-03-29T14:35:55.952Z,21.53
2019-03-29T14:38:25.446Z,20.18
2019-03-29T14:40:55.497Z,19.41
2019-03-29T14:43:24.981Z,19.33
2019-03-29T14:45:54.490Z,19.19
2019-03-29T14:48:24.058Z,19.51
2019-03-29T14:50:53.561Z,19.68
2019-03-29T14:53:24.563Z,19.48
2019-03-29T14:55:54.187Z,18.12
2019-03-29T14:58:23.645Z,18.82
2019-03-29T15:00:53.358Z,18.75
2019-03-29T15:03:22.869Z,18.76
2019-03-29T15:06:01.597Z,19.03
2019-03-29T15:08:29.785Z,18.87
2019-03-29T15:10:59.247Z,18.83
2019-03-29T15:13:28.708Z,17.98
2019-03-29T15:15:58.199Z,18.44
2019-03-29T15:18:29.216Z,18.42
2019-03-29T15:21:04.402Z,18.59
2019-03-29T15:23:33.957Z,18.29
2019-03-29T15:26:03.732Z,17.61
2019-03-29T15:28:33.275Z,17.36
2019-03-29T15:31:02.755Z,17.64
2019-03-29T15:33:32.218Z,17.31
2019-03-29T15:36:01.720Z,17.21
2019-03-29T15:38:31.184Z,17.35
2019-03-29T15:41:00.690Z,17.54
2019-03-29T15:43:36.137Z,17.45
2019-03-29T15:46:05.664Z,17.45
2019-03-29T15:48:35.162Z,17.61
2019-03-29T15:51:24.021Z,17.48
2019-03-29T15:53:53.505Z,17.36
2019-03-29T15:56:24.548Z,17.30
2019-03-29T15:58:55.690Z,17.26
2019-03-29T16:01:25.534Z,17.50
2019-03-29T16:03:55.028Z,17.22
2019-03-29T16:06:24.559Z,17.25
2019-03-29T16:08:54.019Z,17.36
2019-03-29T16:11:23.525Z,17.38
2019-03-29T16:13:53.040Z,17.42
2019-03-29T16:16:22.526Z,17.10
2019-03-29T16:18:52.033Z,17.00
2019-03-29T16:21:21.547Z,17.10
2019-03-29T16:23:51.062Z,16.92
2019-03-29T16:26:20.551Z,17.12
2019-03-29T16:28:50.080Z,17.01
2019-03-29T16:31:19.538Z,17.05
2019-03-29T16:33:49.050Z,16.94
2019-03-29T16:36:18.568Z,17.19
2019-03-29T16:39:08.306Z,17.03
2019-03-29T16:41:38.470Z,17.12
2019-03-29T16:44:08.030Z,16.99
2019-03-29T16:46:37.529Z,16.83
2019-03-29T16:49:07.047Z,16.49
2019-03-29T16:51:36.708Z,16.81
2019-03-29T16:54:06.245Z,16.67
2019-03-29T16:56:35.863Z,16.73
2019-03-29T16:59:05.723Z,16.65
2019-03-29T17:01:35.283Z,16.70
2019-03-29T17:04:05.444Z,16.81
2019-03-29T17:06:35.097Z,16.80
2019-03-29T17:09:06.994Z,16.64
2019-03-29T17:11:36.722Z,16.58
2019-03-29T17:14:06.624Z,16.39
2019-03-29T17:16:41.883Z,16.47
2019-03-29T17:19:11.386Z,16.46
2019-03-29T17:21:40.891Z,16.40
2019-03-29T17:24:10.394Z,16.23
2019-03-29T17:26:39.860Z,16.29
2019-03-29T17:29:09.367Z,16.26
2019-03-29T17:31:38.894Z,16.19
2019-03-29T17:34:11.156Z,16.05
2019-03-29T17:36:43.502Z,15.99
2019-03-29T17:39:13.233Z,15.87
2019-03-29T17:41:42.788Z,15.78
2019-03-29T17:44:12.274Z,15.59
2019-03-29T17:46:41.783Z,15.52
2019-03-29T17:49:11.258Z,15.43
2019-03-29T17:51:40.774Z,15.28
2019-03-29T17:54:10.256Z,15.18
2019-03-29T17:56:39.749Z,15.06
2019-03-29T17:59:09.272Z,14.86
2019-03-29T18:01:39.833Z,14.60
2019-03-29T18:04:09.318Z,14.43
2019-03-29T18:06:58.323Z,14.31
2019-03-29T18:09:47.138Z,13.31
2019-03-29T18:12:16.641Z,14.01
2019-03-29T18:14:46.232Z,13.82
2019-03-29T18:17:15.737Z,13.72
2019-03-29T18:19:45.364Z,13.58
2019-03-29T18:22:14.843Z,13.55
2019-03-29T18:24:44.456Z,13.45
2019-03-29T18:27:14.139Z,13.41
2019-03-29T18:29:43.615Z,13.29
2019-03-29T18:32:13.744Z,13.19
2019-03-29T18:34:43.300Z,13.11
2019-03-29T18:37:14.505Z,12.93
2019-03-29T18:39:45.477Z,12.82
2019-03-29T18:42:14.977Z,12.73
2019-03-29T18:44:44.451Z,12.69
2019-03-29T18:47:13.939Z,12.59
2019-03-29T18:49:43.495Z,12.47
2019-03-29T18:52:13.150Z,12.33
2019-03-29T18:54:44.171Z,12.19
2019-03-29T18:57:13.662Z,12.04
2019-03-29T18:59:43.147Z,12.02
2019-03-29T19:02:13.194Z,11.96
2019-03-29T19:04:42.771Z,11.93
2019-03-29T19:07:12.279Z,11.87
2019-03-29T19:09:41.784Z,11.80
2019-03-29T19:12:11.284Z,11.64
2019-03-29T19:14:41.794Z,11.55
2019-03-29T19:17:11.477Z,11.41
2019-03-29T19:19:40.988Z,11.32
2019-03-29T19:22:10.456Z,11.29
2019-03-29T19:24:39.938Z,11.27
2019-03-29T19:27:09.440Z,11.29
2019-03-29T19:29:38.948Z,11.25
2019-03-29T19:32:08.581Z,11.22
2019-03-29T19:34:38.109Z,11.08
2019-03-29T19:37:07.575Z,11.11
2019-03-29T19:39:37.113Z,11.00
2019-03-29T19:42:07.131Z,10.79
2019-03-29T19:44:36.632Z,10.64
2019-03-29T19:47:13.482Z,10.59
2019-03-29T19:49:37.400Z,10.51
2019-03-29T19:52:07.057Z,10.39
2019-03-29T19:54:36.541Z,10.32
2019-03-29T19:57:08.949Z,10.18
2019-03-29T19:59:38.511Z,10.04
2019-03-29T20:02:07.972Z,10.04
2019-03-29T20:04:45.269Z,10.00
2019-03-29T20:07:20.315Z,10.08
2019-03-29T20:09:52.481Z,10.03
2019-03-29T20:12:24.973Z,9.92
2019-03-29T20:14:54.747Z,9.89
2019-03-29T20:17:27.688Z,9.83
2019-03-29T20:19:55.589Z,9.78
2019-03-29T20:22:25.047Z,9.73
2019-03-29T20:24:54.565Z,9.62
2019-03-29T20:27:24.047Z,9.36
2019-03-29T20:29:53.534Z,9.22
2019-03-29T20:32:23.008Z,9.18
2019-03-29T20:34:52.500Z,9.16
2019-03-29T20:37:22.003Z,9.18
2019-03-29T20:39:51.480Z,9.18
2019-03-29T20:42:20.960Z,9.14
2019-03-29T20:44:50.719Z,9.10
2019-03-29T20:47:20.683Z,9.13
2019-03-29T20:49:50.152Z,9.08
2019-03-29T20:52:19.700Z,8.71
2019-03-29T20:54:49.163Z,8.69
2019-03-29T20:57:18.713Z,8.72
2019-03-29T20:59:48.172Z,8.76
2019-03-29T21:02:17.687Z,8.78
2019-03-29T21:04:47.775Z,8.79
2019-03-29T21:07:17.753Z,8.71
2019-03-29T21:09:47.349Z,8.75
2019-03-29T21:12:16.811Z,8.68
2019-03-29T21:14:46.307Z,8.55
2019-03-29T21:17:15.947Z,8.41
2019-03-29T21:19:45.414Z,8.38
2019-03-29T21:22:15.263Z,8.36
2019-03-29T21:24:44.759Z,8.32
2019-03-29T21:27:14.240Z,8.37
2019-03-29T21:29:43.714Z,8.30
2019-03-29T21:32:13.217Z,8.28
2019-03-29T21:34:42.713Z,8.25
2019-03-29T21:37:17.845Z,8.12
2019-03-29T21:39:47.339Z,7.87
2019-03-29T21:42:19.591Z,7.79
2019-03-29T21:44:49.134Z,7.69
2019-03-29T21:47:24.235Z,7.73
2019-03-29T21:49:57.526Z,7.76
2019-03-29T21:52:26.992Z,7.76
2019-03-29T21:54:56.445Z,7.72
2019-03-29T21:57:25.973Z,7.73
2019-03-29T21:59:55.447Z,7.74
2019-03-29T22:02:24.981Z,7.66
2019-03-29T22:04:54.560Z,7.66
2019-03-29T22:07:24.028Z,7.64
2019-03-29T22:09:53.506Z,7.59
2019-03-29T22:12:23.008Z,7.53
2019-03-29T22:14:52.489Z,7.54
2019-03-29T22:17:22.212Z,7.50
2019-03-29T22:19:51.733Z,7.47
2019-03-29T22:22:21.199Z,7.45
2019-03-29T22:24:50.688Z,7.45
2019-03-29T22:27:20.239Z,7.41
2019-03-29T22:29:49.722Z,7.32
2019-03-29T22:32:21.895Z,7.22
2019-03-29T22:34:51.475Z,7.16
2019-03-29T22:37:23.572Z,7.18
2019-03-29T22:39:53.040Z,7.08
2019-03-29T22:42:22.798Z,7.05
2019-03-29T22:44:52.254Z,7.06
2019-03-29T22:47:21.710Z,6.91
2019-03-29T22:49:51.375Z,6.86
2019-03-29T22:52:20.877Z,6.84
2019-03-29T22:54:50.323Z,6.67
2019-03-29T22:57:20.209Z,6.67
2019-03-29T22:59:49.701Z,6.62
2019-03-29T23:02:19.507Z,6.60
2019-03-29T23:04:51.781Z,6.54
2019-03-29T23:07:22.984Z,6.45
2019-03-29T23:09:58.472Z,6.43
2019-03-29T23:12:27.923Z,6.40
2019-03-29T23:15:03.369Z,6.37
2019-03-29T23:17:37.084Z,6.29
2019-03-29T23:20:07.026Z,6.38
2019-03-29T23:22:36.514Z,6.34
2019-03-29T23:25:06.979Z,6.30
2019-03-29T23:27:36.829Z,6.19
2019-03-29T23:30:08.111Z,5.94
2019-03-29T23:32:42.214Z,5.97
2019-03-29T23:35:11.996Z,5.98
2019-03-29T23:37:41.550Z,5.98
2019-03-29T23:40:12.369Z,6.01
2019-03-29T23:42:44.778Z,6.06
2019-03-29T23:45:14.668Z,5.99
2019-03-29T23:47:44.304Z,5.93
2019-03-29T23:50:16.559Z,5.91
2019-03-29T23:52:48.942Z,5.91
2019-03-29T23:55:18.424Z,5.90
2019-03-29T23:57:47.901Z,5.90
